sensor_id;sensor_type;location;lat;lon;timestamp;P1;durP1;ratioP1;P2;durP2;ratioP2
26504;SDS011;19493;48.042;7.584;2022-09-01T00:02:18;12.02;;;4.15;;
26504;SDS011;19493;48.042;7.584;2022-09-01T00:04:44;12.18;;;4.60;;
26504;SDS011;19493;48.042;7.584;2022-09-01T00:07:11;18.50;;;4.88;;
26504;SDS011;19493;48.042;7.584;2022-09-01T00:09:38;24.48;;;5.38;;
26504;SDS011;19493;48.042;7.584;2022-09-01T00:12:07;16.73;;;5.25;;
26504;SDS011;19493;48.042;7.584;2022-09-01T00:14:34;26.67;;;5.00;;
26504;SDS011;19493;48.042;7.584;2022-09-01T00:17:05;20.77;;;5.90;;
26504;SDS011;19493;48.042;7.584;2022-09-01T00:19:32;15.85;;;4.43;;
26504;SDS011;19493;48.042;7.584;2022-09-01T00:21:59;16.10;;;4.55;;
26504;SDS011;19493;48.042;7.584;2022-09-01T00:24:26;21.17;;;6.07;;
26504;SDS011;19493;48.042;7.584;2022-09-01T00:26:53;16.27;;;5.18;;
26504;SDS011;19493;48.042;7.584;2022-09-01T00:29:19;13.32;;;4.20;;
26504;SDS011;19493;48.042;7.584;2022-09-01T00:31:45;17.45;;;4.60;;
26504;SDS011;19493;48.042;7.584;2022-09-01T00:34:11;16.38;;;5.80;;
26504;SDS011;19493;48.042;7.584;2022-09-01T00:36:36;14.90;;;4.60;;
26504;SDS011;19493;48.042;7.584;2022-09-01T00:39:02;13.73;;;4.25;;
26504;SDS011;19493;48.042;7.584;2022-09-01T00:41:31;9.32;;;3.63;;
26504;SDS011;19493;48.042;7.584;2022-09-01T00:43:58;14.23;;;3.90;;
26504;SDS011;19493;48.042;7.584;2022-09-01T00:46:28;8.73;;;4.32;;
26504;SDS011;19493;48.042;7.584;2022-09-01T00:49:00;15.20;;;3.67;;
26504;SDS011;19493;48.042;7.584;2022-09-01T00:51:37;23.67;;;4.85;;
26504;SDS011;19493;48.042;7.584;2022-09-01T00:54:07;9.23;;;3.47;;
26504;SDS011;19493;48.042;7.584;2022-09-01T00:56:39;15.63;;;4.38;;
26504;SDS011;19493;48.042;7.584;2022-09-01T00:59:06;21.98;;;5.07;;
26504;SDS011;19493;48.042;7.584;2022-09-01T01:01:33;11.60;;;3.55;;
26504;SDS011;19493;48.042;7.584;2022-09-01T01:04:01;17.40;;;4.75;;
26504;SDS011;19493;48.042;7.584;2022-09-01T01:06:27;26.35;;;4.05;;
26504;SDS011;19493;48.042;7.584;2022-09-01T01:08:56;19.65;;;4.93;;
26504;SDS011;19493;48.042;7.584;2022-09-01T01:11:25;16.48;;;5.72;;
26504;SDS011;19493;48.042;7.584;2022-09-01T01:16:36;16.75;;;5.53;;
26504;SDS011;19493;48.042;7.584;2022-09-01T01:22:09;17.67;;;5.47;;
26504;SDS011;19493;48.042;7.584;2022-09-01T01:24:58;31.40;;;5.63;;
26504;SDS011;19493;48.042;7.584;2022-09-01T01:27:29;25.58;;;6.43;;
26504;SDS011;19493;48.042;7.584;2022-09-01T01:29:57;15.90;;;3.88;;
26504;SDS011;19493;48.042;7.584;2022-09-01T01:32:24;20.00;;;3.40;;
26504;SDS011;19493;48.042;7.584;2022-09-01T01:34:50;17.48;;;6.43;;
26504;SDS011;19493;48.042;7.584;2022-09-01T01:37:16;25.63;;;7.15;;
26504;SDS011;19493;48.042;7.584;2022-09-01T01:39:42;21.67;;;6.65;;
26504;SDS011;19493;48.042;7.584;2022-09-01T01:42:09;22.38;;;5.95;;
26504;SDS011;19493;48.042;7.584;2022-09-01T01:44:36;19.10;;;6.63;;
26504;SDS011;19493;48.042;7.584;2022-09-01T01:47:03;17.35;;;3.92;;
26504;SDS011;19493;48.042;7.584;2022-09-01T01:49:32;29.65;;;4.57;;
26504;SDS011;19493;48.042;7.584;2022-09-01T01:51:59;20.95;;;5.53;;
26504;SDS011;19493;48.042;7.584;2022-09-01T01:54:25;23.63;;;7.28;;
26504;SDS011;19493;48.042;7.584;2022-09-01T01:56:53;29.63;;;6.82;;
26504;SDS011;19493;48.042;7.584;2022-09-01T01:59:22;13.70;;;6.20;;
26504;SDS011;19493;48.042;7.584;2022-09-01T02:01:48;22.02;;;5.47;;
26504;SDS011;19493;48.042;7.584;2022-09-01T02:04:15;22.35;;;4.68;;
26504;SDS011;19493;48.042;7.584;2022-09-01T02:06:42;13.50;;;7.35;;
26504;SDS011;19493;48.042;7.584;2022-09-01T02:09:10;42.05;;;9.02;;
26504;SDS011;19493;48.042;7.584;2022-09-01T02:11:36;17.42;;;4.47;;
26504;SDS011;19493;48.042;7.584;2022-09-01T02:14:02;21.90;;;5.55;;
26504;SDS011;19493;48.042;7.584;2022-09-01T02:16:30;16.02;;;5.43;;
26504;SDS011;19493;48.042;7.584;2022-09-01T02:18:58;18.27;;;6.05;;
26504;SDS011;19493;48.042;7.584;2022-09-01T02:21:25;30.52;;;7.13;;
26504;SDS011;19493;48.042;7.584;2022-09-01T02:23:58;10.55;;;4.55;;
26504;SDS011;19493;48.042;7.584;2022-09-01T02:26:31;20.35;;;5.60;;
26504;SDS011;19493;48.042;7.584;2022-09-01T02:28:59;24.92;;;6.70;;
26504;SDS011;19493;48.042;7.584;2022-09-01T02:31:28;38.13;;;7.07;;
26504;SDS011;19493;48.042;7.584;2022-09-01T02:33:56;25.25;;;4.53;;
26504;SDS011;19493;48.042;7.584;2022-09-01T02:36:22;20.98;;;4.82;;
26504;SDS011;19493;48.042;7.584;2022-09-01T02:38:49;16.70;;;5.03;;
26504;SDS011;19493;48.042;7.584;2022-09-01T02:41:16;18.40;;;5.88;;
26504;SDS011;19493;48.042;7.584;2022-09-01T02:43:44;29.58;;;6.82;;
26504;SDS011;19493;48.042;7.584;2022-09-01T02:46:11;23.75;;;6.80;;
26504;SDS011;19493;48.042;7.584;2022-09-01T02:48:39;26.30;;;5.43;;
26504;SDS011;19493;48.042;7.584;2022-09-01T02:51:10;22.27;;;6.50;;
26504;SDS011;19493;48.042;7.584;2022-09-01T02:53:40;22.98;;;5.03;;
26504;SDS011;19493;48.042;7.584;2022-09-01T02:56:08;34.83;;;6.78;;
26504;SDS011;19493;48.042;7.584;2022-09-01T02:58:40;24.25;;;6.43;;
26504;SDS011;19493;48.042;7.584;2022-09-01T03:01:27;32.00;;;5.85;;
26504;SDS011;19493;48.042;7.584;2022-09-01T03:06:25;15.25;;;4.65;;
26504;SDS011;19493;48.042;7.584;2022-09-01T03:08:53;12.27;;;5.75;;
26504;SDS011;19493;48.042;7.584;2022-09-01T03:11:21;23.98;;;6.97;;
26504;SDS011;19493;48.042;7.584;2022-09-01T03:13:48;24.13;;;7.43;;
26504;SDS011;19493;48.042;7.584;2022-09-01T03:16:13;26.75;;;7.13;;
26504;SDS011;19493;48.042;7.584;2022-09-01T03:18:40;20.67;;;5.28;;
26504;SDS011;19493;48.042;7.584;2022-09-01T03:21:06;26.75;;;6.68;;
26504;SDS011;19493;48.042;7.584;2022-09-01T03:23:33;27.80;;;6.55;;
26504;SDS011;19493;48.042;7.584;2022-09-01T03:25:59;27.73;;;6.30;;
26504;SDS011;19493;48.042;7.584;2022-09-01T03:28:25;25.23;;;6.38;;
26504;SDS011;19493;48.042;7.584;2022-09-01T03:30:52;9.95;;;3.67;;
26504;SDS011;19493;48.042;7.584;2022-09-01T03:33:20;27.98;;;5.75;;
26504;SDS011;19493;48.042;7.584;2022-09-01T03:35:47;22.63;;;4.97;;
26504;SDS011;19493;48.042;7.584;2022-09-01T03:38:13;40.80;;;7.03;;
26504;SDS011;19493;48.042;7.584;2022-09-01T03:40:47;19.23;;;5.95;;
26504;SDS011;19493;48.042;7.584;2022-09-01T03:43:26;24.95;;;5.75;;
26504;SDS011;19493;48.042;7.584;2022-09-01T03:45:56;37.58;;;8.55;;
26504;SDS011;19493;48.042;7.584;2022-09-01T03:48:27;22.30;;;4.75;;
26504;SDS011;19493;48.042;7.584;2022-09-01T03:50:54;22.48;;;6.45;;
26504;SDS011;19493;48.042;7.584;2022-09-01T03:53:24;27.63;;;5.00;;
26504;SDS011;19493;48.042;7.584;2022-09-01T03:55:51;23.92;;;7.63;;
26504;SDS011;19493;48.042;7.584;2022-09-01T03:58:18;36.50;;;7.32;;
26504;SDS011;19493;48.042;7.584;2022-09-01T04:00:46;27.35;;;7.18;;
26504;SDS011;19493;48.042;7.584;2022-09-01T04:03:14;33.00;;;6.90;;
26504;SDS011;19493;48.042;7.584;2022-09-01T04:05:47;18.75;;;7.05;;
26504;SDS011;19493;48.042;7.584;2022-09-01T04:08:13;25.65;;;6.53;;
26504;SDS011;19493;48.042;7.584;2022-09-01T04:10:43;34.45;;;11.32;;
26504;SDS011;19493;48.042;7.584;2022-09-01T04:13:20;17.20;;;7.07;;
26504;SDS011;19493;48.042;7.584;2022-09-01T04:15:49;20.15;;;6.95;;
26504;SDS011;19493;48.042;7.584;2022-09-01T04:18:15;31.38;;;6.97;;
26504;SDS011;19493;48.042;7.584;2022-09-01T04:20:52;22.35;;;5.47;;
26504;SDS011;19493;48.042;7.584;2022-09-01T04:26:10;30.85;;;7.40;;
26504;SDS011;19493;48.042;7.584;2022-09-01T04:31:07;23.20;;;6.35;;
26504;SDS011;19493;48.042;7.584;2022-09-01T04:33:39;12.63;;;4.97;;
26504;SDS011;19493;48.042;7.584;2022-09-01T04:36:05;14.43;;;6.40;;
26504;SDS011;19493;48.042;7.584;2022-09-01T04:38:44;26.42;;;7.05;;
26504;SDS011;19493;48.042;7.584;2022-09-01T04:41:11;39.60;;;5.15;;
26504;SDS011;19493;48.042;7.584;2022-09-01T04:43:44;35.17;;;7.78;;
26504;SDS011;19493;48.042;7.584;2022-09-01T04:46:14;24.08;;;6.07;;
26504;SDS011;19493;48.042;7.584;2022-09-01T04:48:41;18.33;;;5.10;;
26504;SDS011;19493;48.042;7.584;2022-09-01T04:51:09;32.28;;;6.45;;
26504;SDS011;19493;48.042;7.584;2022-09-01T04:53:36;13.25;;;4.25;;
26504;SDS011;19493;48.042;7.584;2022-09-01T04:56:04;14.23;;;3.92;;
26504;SDS011;19493;48.042;7.584;2022-09-01T04:58:31;14.02;;;2.88;;
26504;SDS011;19493;48.042;7.584;2022-09-01T05:00:58;18.88;;;4.03;;
26504;SDS011;19493;48.042;7.584;2022-09-01T05:03:24;18.50;;;3.75;;
26504;SDS011;19493;48.042;7.584;2022-09-01T05:05:50;16.02;;;4.47;;
26504;SDS011;19493;48.042;7.584;2022-09-01T05:08:18;20.60;;;5.70;;
26504;SDS011;19493;48.042;7.584;2022-09-01T05:10:47;16.80;;;3.58;;
26504;SDS011;19493;48.042;7.584;2022-09-01T05:13:16;30.02;;;4.72;;
26504;SDS011;19493;48.042;7.584;2022-09-01T05:15:43;13.65;;;3.90;;
26504;SDS011;19493;48.042;7.584;2022-09-01T05:18:11;8.50;;;3.78;;
26504;SDS011;19493;48.042;7.584;2022-09-01T05:20:38;14.00;;;4.40;;
26504;SDS011;19493;48.042;7.584;2022-09-01T05:23:08;8.20;;;2.17;;
26504;SDS011;19493;48.042;7.584;2022-09-01T05:25:40;7.40;;;2.60;;
26504;SDS011;19493;48.042;7.584;2022-09-01T05:28:07;23.02;;;4.40;;
26504;SDS011;19493;48.042;7.584;2022-09-01T05:30:36;11.98;;;4.53;;
26504;SDS011;19493;48.042;7.584;2022-09-01T05:33:03;10.98;;;3.75;;
26504;SDS011;19493;48.042;7.584;2022-09-01T05:35:34;14.07;;;4.78;;
26504;SDS011;19493;48.042;7.584;2022-09-01T05:38:01;15.05;;;3.78;;
26504;SDS011;19493;48.042;7.584;2022-09-01T05:40:27;16.90;;;4.85;;
26504;SDS011;19493;48.042;7.584;2022-09-01T05:42:53;15.10;;;3.72;;
26504;SDS011;19493;48.042;7.584;2022-09-01T05:45:19;14.55;;;3.70;;
26504;SDS011;19493;48.042;7.584;2022-09-01T05:47:50;15.38;;;3.33;;
26504;SDS011;19493;48.042;7.584;2022-09-01T05:50:18;7.88;;;3.10;;
26504;SDS011;19493;48.042;7.584;2022-09-01T05:52:45;7.35;;;2.80;;
26504;SDS011;19493;48.042;7.584;2022-09-01T05:55:12;7.20;;;2.58;;
26504;SDS011;19493;48.042;7.584;2022-09-01T05:57:39;19.15;;;4.10;;
26504;SDS011;19493;48.042;7.584;2022-09-01T06:00:07;5.13;;;2.95;;
26504;SDS011;19493;48.042;7.584;2022-09-01T06:02:37;19.40;;;3.30;;
26504;SDS011;19493;48.042;7.584;2022-09-01T06:05:04;25.90;;;3.97;;
26504;SDS011;19493;48.042;7.584;2022-09-01T06:07:30;26.95;;;5.47;;
26504;SDS011;19493;48.042;7.584;2022-09-01T06:09:56;16.90;;;4.07;;
26504;SDS011;19493;48.042;7.584;2022-09-01T06:12:23;8.65;;;3.20;;
26504;SDS011;19493;48.042;7.584;2022-09-01T06:14:51;11.82;;;3.58;;
26504;SDS011;19493;48.042;7.584;2022-09-01T06:17:18;18.90;;;3.47;;
26504;SDS011;19493;48.042;7.584;2022-09-01T06:19:48;11.00;;;3.33;;
26504;SDS011;19493;48.042;7.584;2022-09-01T06:22:20;34.15;;;6.20;;
26504;SDS011;19493;48.042;7.584;2022-09-01T06:24:48;15.68;;;5.28;;
26504;SDS011;19493;48.042;7.584;2022-09-01T06:27:15;13.95;;;2.92;;
26504;SDS011;19493;48.042;7.584;2022-09-01T06:29:42;32.58;;;8.00;;
26504;SDS011;19493;48.042;7.584;2022-09-01T06:32:09;19.13;;;3.92;;
26504;SDS011;19493;48.042;7.584;2022-09-01T06:34:40;10.43;;;4.00;;
26504;SDS011;19493;48.042;7.584;2022-09-01T06:37:09;17.48;;;5.32;;
26504;SDS011;19493;48.042;7.584;2022-09-01T06:39:36;18.20;;;4.32;;
26504;SDS011;19493;48.042;7.584;2022-09-01T06:42:02;10.75;;;3.58;;
26504;SDS011;19493;48.042;7.584;2022-09-01T06:44:28;11.40;;;4.07;;
26504;SDS011;19493;48.042;7.584;2022-09-01T06:46:55;19.48;;;3.75;;
26504;SDS011;19493;48.042;7.584;2022-09-01T06:49:21;16.95;;;3.72;;
26504;SDS011;19493;48.042;7.584;2022-09-01T06:51:56;13.95;;;4.55;;
26504;SDS011;19493;48.042;7.584;2022-09-01T06:54:23;27.15;;;4.20;;
26504;SDS011;19493;48.042;7.584;2022-09-01T06:56:49;22.17;;;4.38;;
26504;SDS011;19493;48.042;7.584;2022-09-01T06:59:15;17.85;;;5.10;;
26504;SDS011;19493;48.042;7.584;2022-09-01T07:01:41;9.45;;;3.20;;
26504;SDS011;19493;48.042;7.584;2022-09-01T07:04:07;16.35;;;3.63;;
26504;SDS011;19493;48.042;7.584;2022-09-01T07:06:33;11.38;;;3.35;;
26504;SDS011;19493;48.042;7.584;2022-09-01T07:08:59;12.45;;;2.63;;
26504;SDS011;19493;48.042;7.584;2022-09-01T07:11:26;17.65;;;4.85;;
26504;SDS011;19493;48.042;7.584;2022-09-01T07:13:55;15.38;;;3.63;;
26504;SDS011;19493;48.042;7.584;2022-09-01T07:16:23;15.95;;;3.58;;
26504;SDS011;19493;48.042;7.584;2022-09-01T07:18:51;9.70;;;3.72;;
26504;SDS011;19493;48.042;7.584;2022-09-01T07:21:23;11.48;;;3.75;;
26504;SDS011;19493;48.042;7.584;2022-09-01T07:23:49;10.18;;;3.17;;
26504;SDS011;19493;48.042;7.584;2022-09-01T07:26:15;10.40;;;2.47;;
26504;SDS011;19493;48.042;7.584;2022-09-01T07:28:46;20.38;;;4.47;;
26504;SDS011;19493;48.042;7.584;2022-09-01T07:31:29;6.78;;;2.88;;
26504;SDS011;19493;48.042;7.584;2022-09-01T07:33:58;24.47;;;3.13;;
26504;SDS011;19493;48.042;7.584;2022-09-01T07:36:28;13.65;;;3.13;;
26504;SDS011;19493;48.042;7.584;2022-09-01T07:38:53;12.90;;;3.78;;
26504;SDS011;19493;48.042;7.584;2022-09-01T07:41:20;9.93;;;2.65;;
26504;SDS011;19493;48.042;7.584;2022-09-01T07:43:47;9.63;;;2.58;;
26504;SDS011;19493;48.042;7.584;2022-09-01T07:46:18;13.75;;;3.67;;
26504;SDS011;19493;48.042;7.584;2022-09-01T07:48:44;12.43;;;2.70;;
26504;SDS011;19493;48.042;7.584;2022-09-01T07:51:11;14.35;;;2.55;;
26504;SDS011;19493;48.042;7.584;2022-09-01T07:53:38;10.52;;;3.13;;
26504;SDS011;19493;48.042;7.584;2022-09-01T07:56:08;18.27;;;2.60;;
26504;SDS011;19493;48.042;7.584;2022-09-01T07:58:36;6.93;;;2.67;;
26504;SDS011;19493;48.042;7.584;2022-09-01T08:01:13;10.75;;;2.75;;
26504;SDS011;19493;48.042;7.584;2022-09-01T08:03:43;9.68;;;2.50;;
26504;SDS011;19493;48.042;7.584;2022-09-01T08:06:14;8.63;;;4.05;;
26504;SDS011;19493;48.042;7.584;2022-09-01T08:08:44;8.73;;;1.80;;
26504;SDS011;19493;48.042;7.584;2022-09-01T08:11:16;9.27;;;2.92;;
26504;SDS011;19493;48.042;7.584;2022-09-01T08:13:43;15.23;;;3.20;;
26504;SDS011;19493;48.042;7.584;2022-09-01T08:16:09;8.55;;;2.17;;
26504;SDS011;19493;48.042;7.584;2022-09-01T08:18:34;10.60;;;2.28;;
26504;SDS011;19493;48.042;7.584;2022-09-01T08:21:04;19.85;;;2.72;;
26504;SDS011;19493;48.042;7.584;2022-09-01T08:23:31;6.95;;;2.88;;
26504;SDS011;19493;48.042;7.584;2022-09-01T08:25:56;7.60;;;2.70;;
26504;SDS011;19493;48.042;7.584;2022-09-01T08:28:22;6.90;;;3.05;;
26504;SDS011;19493;48.042;7.584;2022-09-01T08:30:47;5.82;;;2.25;;
26504;SDS011;19493;48.042;7.584;2022-09-01T08:33:13;7.30;;;2.20;;
26504;SDS011;19493;48.042;7.584;2022-09-01T08:35:40;6.35;;;2.25;;
26504;SDS011;19493;48.042;7.584;2022-09-01T08:38:08;7.03;;;1.65;;
26504;SDS011;19493;48.042;7.584;2022-09-01T08:40:34;12.07;;;3.28;;
26504;SDS011;19493;48.042;7.584;2022-09-01T08:46:23;12.48;;;2.53;;
26504;SDS011;19493;48.042;7.584;2022-09-01T08:48:57;7.50;;;2.15;;
26504;SDS011;19493;48.042;7.584;2022-09-01T08:54:14;6.80;;;3.03;;
26504;SDS011;19493;48.042;7.584;2022-09-01T08:56:46;5.10;;;1.70;;
26504;SDS011;19493;48.042;7.584;2022-09-01T08:59:17;4.05;;;2.10;;
26504;SDS011;19493;48.042;7.584;2022-09-01T09:01:56;4.40;;;2.42;;
26504;SDS011;19493;48.042;7.584;2022-09-01T09:09:49;7.85;;;2.42;;
26504;SDS011;19493;48.042;7.584;2022-09-01T09:15:25;5.90;;;2.20;;
26504;SDS011;19493;48.042;7.584;2022-09-01T09:18:06;6.60;;;2.20;;
26504;SDS011;19493;48.042;7.584;2022-09-01T09:20:34;3.10;;;1.65;;
26504;SDS011;19493;48.042;7.584;2022-09-01T09:23:01;3.63;;;1.38;;
26504;SDS011;19493;48.042;7.584;2022-09-01T09:25:53;7.03;;;2.53;;
26504;SDS011;19493;48.042;7.584;2022-09-01T09:28:19;7.40;;;2.38;;
26504;SDS011;19493;48.042;7.584;2022-09-01T09:30:44;7.57;;;2.00;;
26504;SDS011;19493;48.042;7.584;2022-09-01T09:33:10;5.50;;;1.60;;
26504;SDS011;19493;48.042;7.584;2022-09-01T09:36:14;6.38;;;2.20;;
26504;SDS011;19493;48.042;7.584;2022-09-01T09:38:41;9.65;;;2.08;;
26504;SDS011;19493;48.042;7.584;2022-09-01T09:41:08;5.90;;;1.63;;
26504;SDS011;19493;48.042;7.584;2022-09-01T09:46:26;4.82;;;1.60;;
26504;SDS011;19493;48.042;7.584;2022-09-01T09:49:09;3.65;;;1.50;;
26504;SDS011;19493;48.042;7.584;2022-09-01T09:51:51;12.95;;;1.50;;
26504;SDS011;19493;48.042;7.584;2022-09-01T09:57:03;6.20;;;1.95;;
26504;SDS011;19493;48.042;7.584;2022-09-01T09:59:33;5.13;;;1.45;;
26504;SDS011;19493;48.042;7.584;2022-09-01T10:04:56;7.18;;;2.20;;
26504;SDS011;19493;48.042;7.584;2022-09-01T10:07:25;4.63;;;1.90;;
26504;SDS011;19493;48.042;7.584;2022-09-01T10:09:55;6.15;;;1.85;;
26504;SDS011;19493;48.042;7.584;2022-09-01T10:12:22;4.10;;;0.93;;
26504;SDS011;19493;48.042;7.584;2022-09-01T10:14:50;1.63;;;1.25;;
26504;SDS011;19493;48.042;7.584;2022-09-01T10:17:22;9.27;;;1.90;;
26504;SDS011;19493;48.042;7.584;2022-09-01T10:19:59;3.90;;;1.63;;
26504;SDS011;19493;48.042;7.584;2022-09-01T10:22:30;3.80;;;1.33;;
26504;SDS011;19493;48.042;7.584;2022-09-01T10:24:57;3.95;;;1.35;;
26504;SDS011;19493;48.042;7.584;2022-09-01T10:27:25;3.10;;;1.58;;
26504;SDS011;19493;48.042;7.584;2022-09-01T10:30:10;3.58;;;1.70;;
26504;SDS011;19493;48.042;7.584;2022-09-01T10:32:45;3.42;;;1.33;;
26504;SDS011;19493;48.042;7.584;2022-09-01T10:35:24;5.22;;;1.42;;
26504;SDS011;19493;48.042;7.584;2022-09-01T10:38:04;3.13;;;1.40;;
26504;SDS011;19493;48.042;7.584;2022-09-01T10:42:58;2.78;;;1.45;;
26504;SDS011;19493;48.042;7.584;2022-09-01T10:45:42;3.38;;;1.45;;
26504;SDS011;19493;48.042;7.584;2022-09-01T10:50:48;4.47;;;1.52;;
26504;SDS011;19493;48.042;7.584;2022-09-01T11:04:15;3.80;;;1.25;;
26504;SDS011;19493;48.042;7.584;2022-09-01T11:09:35;2.38;;;1.00;;
26504;SDS011;19493;48.042;7.584;2022-09-01T11:12:43;2.20;;;1.15;;
26504;SDS011;19493;48.042;7.584;2022-09-01T11:15:31;5.43;;;1.23;;
26504;SDS011;19493;48.042;7.584;2022-09-01T11:18:00;4.65;;;1.30;;
26504;SDS011;19493;48.042;7.584;2022-09-01T11:20:32;3.05;;;1.00;;
26504;SDS011;19493;48.042;7.584;2022-09-01T11:23:11;5.70;;;1.25;;
26504;SDS011;19493;48.042;7.584;2022-09-01T11:25:47;1.77;;;0.80;;
26504;SDS011;19493;48.042;7.584;2022-09-01T11:38:52;3.50;;;1.00;;
26504;SDS011;19493;48.042;7.584;2022-09-01T11:44:17;2.17;;;0.73;;
26504;SDS011;19493;48.042;7.584;2022-09-01T11:46:57;4.47;;;1.48;;
26504;SDS011;19493;48.042;7.584;2022-09-01T11:51:53;1.27;;;0.90;;
26504;SDS011;19493;48.042;7.584;2022-09-01T11:54:19;2.08;;;0.98;;
26504;SDS011;19493;48.042;7.584;2022-09-01T11:56:45;2.05;;;1.08;;
26504;SDS011;19493;48.042;7.584;2022-09-01T11:59:11;1.08;;;0.77;;
26504;SDS011;19493;48.042;7.584;2022-09-01T12:01:37;2.10;;;1.00;;
26504;SDS011;19493;48.042;7.584;2022-09-01T12:04:16;2.83;;;1.08;;
26504;SDS011;19493;48.042;7.584;2022-09-01T12:06:52;2.63;;;0.77;;
26504;SDS011;19493;48.042;7.584;2022-09-01T12:09:36;3.92;;;0.90;;
26504;SDS011;19493;48.042;7.584;2022-09-01T12:15:04;2.78;;;0.85;;
26504;SDS011;19493;48.042;7.584;2022-09-01T12:17:34;2.88;;;1.00;;
26504;SDS011;19493;48.042;7.584;2022-09-01T12:20:19;1.42;;;0.70;;
26504;SDS011;19493;48.042;7.584;2022-09-01T12:22:45;2.67;;;1.27;;
26504;SDS011;19493;48.042;7.584;2022-09-01T12:25:44;1.92;;;1.00;;
26504;SDS011;19493;48.042;7.584;2022-09-01T12:28:03;1.65;;;0.63;;
26504;SDS011;19493;48.042;7.584;2022-09-01T12:30:32;2.38;;;0.60;;
26504;SDS011;19493;48.042;7.584;2022-09-01T12:32:59;5.25;;;1.33;;
26504;SDS011;19493;48.042;7.584;2022-09-01T12:35:28;4.10;;;1.10;;
26504;SDS011;19493;48.042;7.584;2022-09-01T12:40:48;1.95;;;0.55;;
26504;SDS011;19493;48.042;7.584;2022-09-01T12:43:51;1.20;;;0.63;;
26504;SDS011;19493;48.042;7.584;2022-09-01T12:46:10;1.10;;;0.70;;
26504;SDS011;19493;48.042;7.584;2022-09-01T12:48:37;2.83;;;0.93;;
26504;SDS011;19493;48.042;7.584;2022-09-01T12:51:21;2.75;;;1.38;;
26504;SDS011;19493;48.042;7.584;2022-09-01T12:53:55;0.93;;;0.40;;
26504;SDS011;19493;48.042;7.584;2022-09-01T12:56:29;0.68;;;0.50;;
26504;SDS011;19493;48.042;7.584;2022-09-01T12:59:03;1.60;;;0.80;;
26504;SDS011;19493;48.042;7.584;2022-09-01T13:01:31;1.88;;;0.50;;
26504;SDS011;19493;48.042;7.584;2022-09-01T13:04:05;1.20;;;0.77;;
26504;SDS011;19493;48.042;7.584;2022-09-01T13:06:33;1.48;;;0.50;;
26504;SDS011;19493;48.042;7.584;2022-09-01T13:08:59;1.95;;;0.88;;
26504;SDS011;19493;48.042;7.584;2022-09-01T13:11:24;1.85;;;0.82;;
26504;SDS011;19493;48.042;7.584;2022-09-01T13:13:50;2.05;;;0.75;;
26504;SDS011;19493;48.042;7.584;2022-09-01T13:16:15;1.98;;;0.60;;
26504;SDS011;19493;48.042;7.584;2022-09-01T13:18:41;2.10;;;0.70;;
26504;SDS011;19493;48.042;7.584;2022-09-01T13:21:07;1.38;;;0.50;;
26504;SDS011;19493;48.042;7.584;2022-09-01T13:23:33;1.35;;;0.60;;
26504;SDS011;19493;48.042;7.584;2022-09-01T13:25:59;2.30;;;0.95;;
26504;SDS011;19493;48.042;7.584;2022-09-01T13:28:24;2.25;;;0.93;;
26504;SDS011;19493;48.042;7.584;2022-09-01T13:30:55;0.93;;;0.45;;
26504;SDS011;19493;48.042;7.584;2022-09-01T13:33:23;2.75;;;0.70;;
26504;SDS011;19493;48.042;7.584;2022-09-01T13:35:52;1.60;;;0.80;;
26504;SDS011;19493;48.042;7.584;2022-09-01T13:38:18;2.08;;;0.68;;
26504;SDS011;19493;48.042;7.584;2022-09-01T13:40:45;0.93;;;0.50;;
26504;SDS011;19493;48.042;7.584;2022-09-01T13:43:12;1.73;;;0.68;;
26504;SDS011;19493;48.042;7.584;2022-09-01T13:45:43;2.50;;;0.60;;
26504;SDS011;19493;48.042;7.584;2022-09-01T13:48:09;3.13;;;0.98;;
26504;SDS011;19493;48.042;7.584;2022-09-01T13:50:35;1.90;;;1.17;;
26504;SDS011;19493;48.042;7.584;2022-09-01T13:53:02;0.95;;;0.63;;
26504;SDS011;19493;48.042;7.584;2022-09-01T13:55:30;1.27;;;0.60;;
26504;SDS011;19493;48.042;7.584;2022-09-01T13:57:58;1.95;;;0.98;;
26504;SDS011;19493;48.042;7.584;2022-09-01T14:00:28;1.33;;;0.82;;
26504;SDS011;19493;48.042;7.584;2022-09-01T14:02:57;1.25;;;0.70;;
26504;SDS011;19493;48.042;7.584;2022-09-01T14:05:27;1.95;;;0.60;;
26504;SDS011;19493;48.042;7.584;2022-09-01T14:07:55;1.20;;;0.63;;
26504;SDS011;19493;48.042;7.584;2022-09-01T14:10:21;1.33;;;0.63;;
26504;SDS011;19493;48.042;7.584;2022-09-01T14:12:48;3.20;;;1.20;;
26504;SDS011;19493;48.042;7.584;2022-09-01T14:15:15;0.82;;;0.45;;
26504;SDS011;19493;48.042;7.584;2022-09-01T14:17:42;2.33;;;1.55;;
26504;SDS011;19493;48.042;7.584;2022-09-01T14:20:13;1.48;;;0.50;;
26504;SDS011;19493;48.042;7.584;2022-09-01T14:22:42;0.60;;;0.43;;
26504;SDS011;19493;48.042;7.584;2022-09-01T14:25:09;1.23;;;0.70;;
26504;SDS011;19493;48.042;7.584;2022-09-01T14:27:35;0.95;;;0.43;;
26504;SDS011;19493;48.042;7.584;2022-09-01T14:30:02;1.58;;;0.55;;
26504;SDS011;19493;48.042;7.584;2022-09-01T14:32:29;1.00;;;0.60;;
26504;SDS011;19493;48.042;7.584;2022-09-01T14:34:55;2.00;;;0.95;;
26504;SDS011;19493;48.042;7.584;2022-09-01T14:37:21;1.92;;;0.77;;
26504;SDS011;19493;48.042;7.584;2022-09-01T14:39:48;1.95;;;1.00;;
26504;SDS011;19493;48.042;7.584;2022-09-01T14:42:14;1.85;;;0.82;;
26504;SDS011;19493;48.042;7.584;2022-09-01T14:44:40;1.92;;;0.77;;
26504;SDS011;19493;48.042;7.584;2022-09-01T14:47:07;1.55;;;0.60;;
26504;SDS011;19493;48.042;7.584;2022-09-01T14:49:33;2.47;;;0.63;;
26504;SDS011;19493;48.042;7.584;2022-09-01T14:52:02;1.48;;;0.80;;
26504;SDS011;19493;48.042;7.584;2022-09-01T14:54:31;1.48;;;0.88;;
26504;SDS011;19493;48.042;7.584;2022-09-01T14:56:58;1.35;;;0.80;;
26504;SDS011;19493;48.042;7.584;2022-09-01T14:59:23;3.28;;;0.90;;
26504;SDS011;19493;48.042;7.584;2022-09-01T15:01:49;0.93;;;0.63;;
26504;SDS011;19493;48.042;7.584;2022-09-01T15:04:15;3.30;;;0.68;;
26504;SDS011;19493;48.042;7.584;2022-09-01T15:06:40;0.75;;;0.47;;
26504;SDS011;19493;48.042;7.584;2022-09-01T15:09:06;0.50;;;0.45;;
26504;SDS011;19493;48.042;7.584;2022-09-01T15:11:31;1.20;;;0.40;;
26504;SDS011;19493;48.042;7.584;2022-09-01T15:13:57;2.78;;;0.85;;
26504;SDS011;19493;48.042;7.584;2022-09-01T15:16:23;2.50;;;0.90;;
26504;SDS011;19493;48.042;7.584;2022-09-01T15:18:51;1.40;;;0.50;;
26504;SDS011;19493;48.042;7.584;2022-09-01T15:21:21;0.98;;;0.70;;
26504;SDS011;19493;48.042;7.584;2022-09-01T15:23:58;1.00;;;0.43;;
26504;SDS011;19493;48.042;7.584;2022-09-01T15:26:25;1.48;;;0.75;;
26504;SDS011;19493;48.042;7.584;2022-09-01T15:28:51;1.25;;;0.40;;
26504;SDS011;19493;48.042;7.584;2022-09-01T15:31:18;0.82;;;0.52;;
26504;SDS011;19493;48.042;7.584;2022-09-01T15:33:44;0.40;;;0.38;;
26504;SDS011;19493;48.042;7.584;2022-09-01T15:36:15;1.23;;;0.60;;
26504;SDS011;19493;48.042;7.584;2022-09-01T15:38:42;0.98;;;0.55;;
26504;SDS011;19493;48.042;7.584;2022-09-01T15:41:07;2.80;;;0.95;;
26504;SDS011;19493;48.042;7.584;2022-09-01T15:43:33;2.53;;;0.73;;
26504;SDS011;19493;48.042;7.584;2022-09-01T15:45:59;1.67;;;0.65;;
26504;SDS011;19493;48.042;7.584;2022-09-01T15:48:27;1.70;;;0.35;;
26504;SDS011;19493;48.042;7.584;2022-09-01T15:50:57;0.98;;;0.60;;
26504;SDS011;19493;48.042;7.584;2022-09-01T15:53:44;0.47;;;0.43;;
26504;SDS011;19493;48.042;7.584;2022-09-01T15:56:09;1.40;;;0.68;;
26504;SDS011;19493;48.042;7.584;2022-09-01T15:58:35;1.23;;;0.52;;
26504;SDS011;19493;48.042;7.584;2022-09-01T16:01:00;3.13;;;0.80;;
26504;SDS011;19493;48.042;7.584;2022-09-01T16:03:26;1.90;;;0.63;;
26504;SDS011;19493;48.042;7.584;2022-09-01T16:05:53;1.10;;;0.50;;
26504;SDS011;19493;48.042;7.584;2022-09-01T16:08:19;0.68;;;0.38;;
26504;SDS011;19493;48.042;7.584;2022-09-01T16:10:45;1.48;;;0.68;;